createdAt,value
2018-12-25T00:01:04.569Z,6.97
2018-12-25T00:03:31.396Z,7.67
2018-12-25T00:05:57.662Z,6.90
2018-12-25T00:08:23.948Z,6.90
2018-12-25T00:10:50.229Z,6.53
2018-12-25T00:13:16.488Z,7.57
2018-12-25T00:15:42.758Z,9.73
2018-12-25T00:18:09.143Z,8.77
2018-12-25T00:20:35.548Z,8.93
2018-12-25T00:23:02.440Z,8.57
2018-12-25T00:25:28.707Z,7.97
2018-12-25T00:27:55.005Z,7.37
2018-12-25T00:30:22.939Z,7.13
2018-12-25T00:32:49.126Z,6.90
2018-12-25T00:35:15.436Z,6.60
2018-12-25T00:37:42.133Z,8.10
2018-12-25T00:40:08.389Z,7.83
2018-12-25T00:42:34.645Z,7.50
2018-12-25T00:45:01.035Z,7.60
2018-12-25T00:47:27.283Z,8.13
2018-12-25T00:49:53.660Z,7.20
2018-12-25T00:52:20.042Z,7.53
2018-12-25T00:54:46.349Z,6.50
2018-12-25T00:57:12.889Z,6.17
2018-12-25T00:59:39.293Z,6.70
2018-12-25T01:02:05.626Z,6.00
2018-12-25T01:04:31.892Z,6.20
2018-12-25T01:06:58.168Z,5.67
2018-12-25T01:09:24.576Z,9.30
2018-12-25T01:11:51.041Z,6.83
2018-12-25T01:14:17.313Z,7.23
2018-12-25T01:16:44.839Z,7.53
2018-12-25T01:19:11.148Z,7.87
2018-12-25T01:21:37.583Z,8.17
2018-12-25T01:24:03.956Z,7.80
2018-12-25T01:26:30.213Z,7.67
2018-12-25T01:28:56.583Z,6.50
2018-12-25T01:31:22.949Z,5.57
2018-12-25T01:33:49.330Z,6.50
2018-12-25T01:36:15.582Z,6.40
2018-12-25T01:38:41.867Z,6.87
2018-12-25T01:41:08.304Z,7.30
2018-12-25T01:43:34.717Z,9.50
2018-12-25T01:46:01.194Z,9.50
2018-12-25T01:48:27.684Z,9.20
2018-12-25T01:50:54.050Z,9.47
2018-12-25T01:53:20.353Z,8.97
2018-12-25T01:55:46.669Z,7.27
2018-12-25T01:58:13.037Z,7.33
2018-12-25T02:00:39.273Z,6.73
2018-12-25T02:03:05.655Z,7.53
2018-12-25T02:05:32.044Z,7.33
2018-12-25T02:07:58.331Z,7.83
2018-12-25T02:10:24.616Z,7.27
2018-12-25T02:12:51.072Z,6.37
2018-12-25T02:15:17.460Z,6.20
2018-12-25T02:17:43.742Z,5.90
2018-12-25T02:20:10.219Z,8.40
2018-12-25T02:22:36.507Z,6.70
2018-12-25T02:25:02.958Z,9.37
2018-12-25T02:27:29.243Z,9.67
2018-12-25T02:29:55.653Z,8.03
2018-12-25T02:32:21.919Z,7.80
2018-12-25T02:34:48.200Z,7.87
2018-12-25T02:37:14.513Z,8.87
2018-12-25T02:39:40.895Z,8.90
2018-12-25T02:42:07.302Z,9.33
2018-12-25T02:44:33.546Z,9.80
2018-12-25T02:47:00.065Z,10.90
2018-12-25T02:49:26.316Z,8.87
2018-12-25T02:51:52.681Z,9.13
2018-12-25T02:54:18.962Z,8.93
2018-12-25T02:56:45.310Z,10.30
2018-12-25T02:59:11.636Z,8.97
2018-12-25T03:01:38.084Z,8.97
2018-12-25T03:04:04.440Z,8.50
2018-12-25T03:06:30.775Z,9.27
2018-12-25T03:08:57.039Z,8.90
2018-12-25T03:11:23.271Z,9.07
2018-12-25T03:13:49.544Z,9.60
2018-12-25T03:16:15.858Z,11.23
2018-12-25T03:18:42.221Z,10.13
2018-12-25T03:21:08.527Z,9.53
2018-12-25T03:23:34.890Z,7.57
2018-12-25T03:26:01.258Z,8.23
2018-12-25T03:28:27.668Z,7.33
2018-12-25T03:30:54.057Z,6.80
2018-12-25T03:33:20.334Z,6.90
2018-12-25T03:35:46.594Z,6.50
2018-12-25T03:38:12.851Z,6.57
2018-12-25T03:40:39.330Z,6.43
2018-12-25T03:43:05.862Z,5.73
2018-12-25T03:45:32.061Z,6.23
2018-12-25T03:47:58.337Z,7.03
2018-12-25T03:50:24.629Z,8.03
2018-12-25T03:52:51.001Z,6.70
2018-12-25T03:55:17.301Z,6.23
2018-12-25T03:57:43.660Z,5.67
2018-12-25T04:00:10.016Z,6.23
2018-12-25T04:02:36.418Z,5.73
2018-12-25T04:05:03.473Z,5.43
2018-12-25T04:07:29.754Z,4.90
2018-12-25T04:09:56.122Z,4.30
2018-12-25T04:12:22.381Z,5.20
2018-12-25T04:14:48.669Z,6.03
2018-12-25T04:17:14.924Z,5.60
2018-12-25T04:19:41.193Z,4.97
2018-12-25T04:22:07.522Z,5.87
2018-12-25T04:24:33.912Z,5.17
2018-12-25T04:27:00.153Z,5.37
2018-12-25T04:29:26.431Z,9.00
2018-12-25T04:31:52.662Z,7.00
2018-12-25T04:34:18.938Z,7.10
2018-12-25T04:36:45.313Z,7.80
2018-12-25T04:39:11.701Z,6.30
2018-12-25T04:41:38.018Z,6.07
2018-12-25T04:44:04.343Z,5.50
2018-12-25T04:46:30.592Z,6.00
2018-12-25T04:48:56.862Z,6.43
2018-12-25T04:51:23.119Z,6.47
2018-12-25T04:53:49.403Z,8.27
2018-12-25T04:56:15.811Z,7.50
2018-12-25T04:58:42.074Z,11.77
2018-12-25T05:01:08.355Z,12.50
2018-12-25T05:03:34.625Z,13.40
2018-12-25T05:06:01.142Z,15.07
2018-12-25T05:08:27.523Z,14.00
2018-12-25T05:10:53.783Z,14.17
2018-12-25T05:13:20.147Z,11.67
2018-12-25T05:15:46.510Z,13.23
2018-12-25T05:18:12.930Z,12.10
2018-12-25T05:20:39.161Z,10.67
2018-12-25T05:23:05.456Z,10.23
2018-12-25T05:25:32.005Z,8.63
2018-12-25T05:27:58.459Z,7.80
2018-12-25T05:30:24.714Z,7.40
2018-12-25T05:32:50.989Z,6.83
2018-12-25T05:35:17.271Z,6.50
2018-12-25T05:37:43.594Z,6.60
2018-12-25T05:40:09.943Z,6.30
2018-12-25T05:42:36.199Z,5.83
2018-12-25T05:45:02.696Z,5.80
2018-12-25T05:47:29.815Z,5.50
2018-12-25T05:49:56.169Z,5.20
2018-12-25T05:52:22.437Z,5.33
2018-12-25T05:54:48.908Z,7.93
2018-12-25T05:57:15.174Z,7.40
2018-12-25T05:59:41.464Z,8.43
2018-12-25T06:02:07.843Z,8.30
2018-12-25T06:04:34.112Z,9.10
2018-12-25T06:07:00.407Z,10.00
2018-12-25T06:09:26.700Z,9.83
2018-12-25T06:11:53.107Z,9.00
2018-12-25T06:14:19.364Z,9.33
2018-12-25T06:16:45.624Z,9.73
2018-12-25T06:19:11.950Z,9.90
2018-12-25T06:21:38.307Z,8.77
2018-12-25T06:24:04.585Z,7.77
2018-12-25T06:26:30.980Z,8.40
2018-12-25T06:28:57.250Z,7.43
2018-12-25T06:31:23.554Z,7.20
2018-12-25T06:33:49.809Z,8.07
2018-12-25T06:36:16.198Z,9.47
2018-12-25T06:38:42.660Z,8.83
2018-12-25T06:41:09.037Z,10.77
2018-12-25T06:43:35.297Z,8.93
2018-12-25T06:46:01.573Z,8.50
2018-12-25T06:48:27.855Z,8.53
2018-12-25T06:50:54.236Z,8.23
2018-12-25T06:53:20.531Z,6.93
2018-12-25T06:55:46.961Z,6.53
2018-12-25T06:58:13.227Z,8.30
2018-12-25T07:00:39.492Z,6.40
2018-12-25T07:03:05.952Z,6.40
2018-12-25T07:05:32.339Z,5.87
2018-12-25T07:07:58.620Z,5.73
2018-12-25T07:10:24.901Z,6.07
2018-12-25T07:12:51.265Z,9.43
2018-12-25T07:15:17.531Z,8.27
2018-12-25T07:17:43.819Z,7.83
2018-12-25T07:20:10.379Z,8.73
2018-12-25T07:22:36.656Z,8.87
2018-12-25T07:25:03.125Z,11.40
2018-12-25T07:27:29.387Z,12.50
2018-12-25T07:29:55.853Z,10.57
2018-12-25T07:32:22.116Z,10.80
2018-12-25T07:34:48.480Z,9.43
2018-12-25T07:37:14.753Z,11.03
2018-12-25T07:39:41.169Z,10.80
2018-12-25T07:42:07.435Z,12.63
2018-12-25T07:44:33.669Z,12.37
2018-12-25T07:46:59.973Z,18.07
2018-12-25T07:49:26.333Z,17.77
2018-12-25T07:51:52.774Z,19.13
2018-12-25T07:54:19.076Z,15.23
2018-12-25T07:56:45.443Z,19.90
2018-12-25T07:59:11.728Z,18.90
2018-12-25T08:01:38.210Z,17.47
2018-12-25T08:04:04.692Z,14.63
2018-12-25T08:06:30.962Z,13.30
2018-12-25T08:08:57.340Z,12.70
2018-12-25T08:11:23.763Z,16.53
2018-12-25T08:13:50.034Z,13.93
2018-12-25T08:16:16.312Z,10.67
2018-12-25T08:18:42.674Z,11.10
2018-12-25T08:21:09.001Z,13.90
2018-12-25T08:23:35.292Z,14.73
2018-12-25T08:26:01.533Z,18.20
2018-12-25T08:28:27.953Z,14.90
2018-12-25T08:30:54.208Z,13.73
2018-12-25T08:33:20.523Z,16.20
2018-12-25T08:35:46.782Z,19.10
2018-12-25T08:38:13.167Z,14.77
2018-12-25T08:40:39.446Z,18.77
2018-12-25T08:43:05.790Z,16.73
2018-12-25T08:45:32.263Z,13.37
2018-12-25T08:47:58.589Z,15.20
2018-12-25T08:50:24.937Z,18.20
2018-12-25T08:52:51.200Z,12.90
2018-12-25T08:55:17.578Z,18.17
2018-12-25T08:57:43.864Z,16.93
2018-12-25T09:00:11.264Z,18.17
2018-12-25T09:02:37.554Z,14.83
2018-12-25T09:05:03.887Z,17.77
2018-12-25T09:07:30.251Z,18.63
2018-12-25T09:09:56.500Z,16.03
2018-12-25T09:12:22.758Z,17.27
2018-12-25T09:14:49.147Z,16.10
2018-12-25T09:17:15.428Z,16.03
2018-12-25T09:19:41.683Z,19.07
2018-12-25T09:22:08.025Z,13.30
2018-12-25T09:24:34.290Z,17.63
2018-12-25T09:27:00.559Z,15.67
2018-12-25T09:29:26.817Z,14.20
2018-12-25T09:31:53.201Z,11.90
2018-12-25T09:34:19.575Z,10.83
2018-12-25T09:36:45.836Z,13.70
2018-12-25T09:39:12.132Z,13.50
2018-12-25T09:41:38.492Z,14.53
2018-12-25T09:44:04.691Z,13.20
2018-12-25T09:46:31.008Z,17.13
2018-12-25T09:48:57.796Z,21.50
2018-12-25T09:51:24.098Z,20.47
2018-12-25T09:53:50.410Z,15.07
2018-12-25T09:56:16.964Z,16.23
2018-12-25T09:58:43.353Z,13.53
2018-12-25T10:01:09.698Z,13.17
2018-12-25T10:03:36.356Z,16.53
2018-12-25T10:06:02.840Z,12.77
2018-12-25T10:08:29.201Z,11.40
2018-12-25T10:10:55.606Z,12.83
2018-12-25T10:13:22.053Z,10.17
2018-12-25T10:15:48.642Z,8.77
2018-12-25T10:18:15.062Z,8.83
2018-12-25T10:20:41.450Z,8.37
2018-12-25T10:23:09.611Z,6.17
2018-12-25T10:25:35.943Z,8.20
2018-12-25T10:28:02.222Z,12.03
2018-12-25T10:30:28.774Z,15.27
2018-12-25T10:32:55.158Z,11.67
2018-12-25T10:35:21.494Z,9.33
2018-12-25T10:37:50.918Z,10.43
2018-12-25T10:40:19.228Z,10.00
2018-12-25T10:42:45.433Z,9.50
2018-12-25T10:45:11.724Z,10.57
2018-12-25T10:47:38.342Z,14.20
2018-12-25T10:50:06.702Z,12.80
2018-12-25T10:52:32.982Z,9.93
2018-12-25T10:54:59.376Z,6.97
2018-12-25T10:57:25.671Z,10.00
2018-12-25T10:59:51.961Z,12.50
2018-12-25T11:02:18.572Z,11.17
2018-12-25T11:04:44.943Z,12.57
2018-12-25T11:07:11.226Z,10.67
2018-12-25T11:09:37.881Z,8.83
2018-12-25T11:12:04.276Z,6.60
2018-12-25T11:14:30.657Z,15.10
2018-12-25T11:16:57.027Z,18.13
2018-12-25T11:19:23.338Z,12.23
2018-12-25T11:21:49.758Z,11.20
2018-12-25T11:24:16.150Z,10.80
2018-12-25T11:26:42.456Z,10.33
2018-12-25T11:29:08.812Z,16.00
2018-12-25T11:31:35.321Z,18.43
2018-12-25T11:34:02.602Z,13.53
2018-12-25T11:36:29.012Z,10.60
2018-12-25T11:38:55.330Z,9.07
2018-12-25T11:41:21.593Z,10.70
2018-12-25T11:43:50.828Z,11.23
2018-12-25T11:46:17.219Z,14.33
2018-12-25T11:48:43.566Z,13.10
2018-12-25T11:51:09.950Z,13.60
2018-12-25T11:53:36.246Z,13.33
2018-12-25T11:56:02.636Z,11.83
2018-12-25T11:58:28.924Z,12.60
2018-12-25T12:00:55.226Z,11.00
2018-12-25T12:03:21.635Z,12.53
2018-12-25T12:05:49.790Z,10.33
2018-12-25T12:08:16.185Z,11.57
2018-12-25T12:10:42.442Z,13.17
2018-12-25T12:13:08.758Z,12.43
2018-12-25T12:15:35.041Z,9.63
2018-12-25T12:18:01.456Z,8.47
2018-12-25T12:20:30.844Z,9.10
2018-12-25T12:22:57.132Z,11.00
2018-12-25T12:25:23.402Z,14.67
2018-12-25T12:27:49.682Z,13.03
2018-12-25T12:30:15.953Z,12.80
2018-12-25T12:32:43.452Z,11.67
2018-12-25T12:35:09.733Z,9.60
2018-12-25T12:37:35.994Z,12.30
2018-12-25T12:40:04.175Z,9.73
2018-12-25T12:42:30.567Z,11.17
2018-12-25T12:44:56.870Z,8.97
2018-12-25T12:47:23.198Z,9.73
2018-12-25T12:49:49.593Z,8.87
2018-12-25T12:52:15.855Z,10.50
2018-12-25T12:54:42.274Z,11.90
2018-12-25T12:57:09.209Z,12.47
2018-12-25T12:59:35.468Z,11.50
2018-12-25T13:02:01.822Z,9.67
2018-12-25T13:04:28.486Z,12.90
2018-12-25T13:06:54.717Z,10.33
2018-12-25T13:09:21.124Z,9.23
2018-12-25T13:11:47.489Z,8.77
2018-12-25T13:14:13.809Z,8.20
2018-12-25T13:16:40.068Z,9.53
2018-12-25T13:19:06.306Z,8.67
2018-12-25T13:21:32.679Z,6.70
2018-12-25T13:23:59.058Z,7.30
2018-12-25T13:26:25.448Z,7.67
2018-12-25T13:28:51.743Z,7.33
2018-12-25T13:31:18.444Z,9.40
2018-12-25T13:33:44.679Z,7.43
2018-12-25T13:36:11.203Z,8.13
2018-12-25T13:38:37.492Z,10.07
2018-12-25T13:41:03.744Z,8.47
2018-12-25T13:43:30.024Z,8.73
2018-12-25T13:45:56.271Z,9.93
2018-12-25T13:48:22.518Z,9.30
2018-12-25T13:50:50.702Z,9.47
2018-12-25T13:53:17.096Z,10.77
2018-12-25T13:55:43.442Z,7.70
2018-12-25T13:58:09.751Z,10.67
2018-12-25T14:00:36.213Z,14.50
2018-12-25T14:03:02.620Z,20.07
2018-12-25T14:05:29.315Z,12.97
2018-12-25T14:07:55.600Z,12.13
2018-12-25T14:10:21.908Z,9.50
2018-12-25T14:12:48.762Z,11.67
2018-12-25T14:15:15.005Z,10.20
2018-12-25T14:17:41.487Z,10.27
2018-12-25T14:20:07.763Z,10.97
2018-12-25T14:22:34.079Z,12.63
2018-12-25T14:25:00.477Z,9.23
2018-12-25T14:27:26.922Z,8.73
2018-12-25T14:29:53.282Z,9.47
2018-12-25T14:32:19.591Z,10.40
2018-12-25T14:34:45.839Z,10.37
2018-12-25T14:37:12.129Z,9.03
2018-12-25T14:39:38.797Z,10.67
2018-12-25T14:42:05.070Z,9.70
2018-12-25T14:44:31.316Z,11.63
2018-12-25T14:46:57.731Z,9.37
2018-12-25T14:49:24.243Z,9.23
2018-12-25T14:51:50.478Z,12.97
2018-12-25T14:54:17.005Z,10.67
2018-12-25T14:56:43.358Z,8.33
2018-12-25T14:59:09.777Z,13.67
2018-12-25T15:01:36.058Z,13.17
2018-12-25T15:04:02.565Z,16.13
2018-12-25T15:06:29.397Z,14.67
2018-12-25T15:08:55.682Z,11.33
2018-12-25T15:11:21.944Z,11.63
2018-12-25T15:13:48.294Z,11.23
2018-12-25T15:16:14.602Z,11.57
2018-12-25T15:18:40.903Z,12.83
2018-12-25T15:21:07.427Z,7.10
2018-12-25T15:23:33.766Z,11.90
2018-12-25T15:26:00.074Z,12.00
2018-12-25T15:28:26.331Z,13.47
2018-12-25T15:30:52.668Z,11.73
2018-12-25T15:33:19.435Z,10.13
2018-12-25T15:35:45.745Z,10.60
2018-12-25T15:38:12.120Z,9.97
2018-12-25T15:40:38.388Z,8.43
2018-12-25T15:43:04.695Z,7.93
2018-12-25T15:45:30.986Z,7.17
2018-12-25T15:47:57.420Z,8.93
2018-12-25T15:50:23.900Z,9.17
2018-12-25T15:52:50.204Z,12.60
2018-12-25T15:55:16.758Z,14.00
2018-12-25T15:57:43.183Z,10.47
2018-12-25T16:00:12.266Z,9.63
2018-12-25T16:02:38.566Z,12.13
2018-12-25T16:05:05.214Z,11.30
2018-12-25T16:07:31.685Z,9.87
2018-12-25T16:09:58.126Z,14.60
2018-12-25T16:12:24.363Z,12.33
2018-12-25T16:14:50.871Z,12.00
2018-12-25T16:17:17.133Z,11.87
2018-12-25T16:19:43.508Z,10.73
2018-12-25T16:22:09.798Z,10.83
2018-12-25T16:24:36.212Z,10.73
2018-12-25T16:27:02.600Z,10.07
2018-12-25T16:29:29.536Z,9.87
2018-12-25T16:31:55.939Z,15.97
2018-12-25T16:34:22.263Z,12.00
2018-12-25T16:36:48.615Z,12.53
2018-12-25T16:39:14.887Z,13.57
2018-12-25T16:41:41.164Z,11.77
2018-12-25T16:44:07.443Z,11.93
2018-12-25T16:46:33.715Z,16.90
2018-12-25T16:48:59.985Z,17.00
2018-12-25T16:51:26.354Z,17.93
2018-12-25T16:53:53.595Z,19.77
2018-12-25T16:56:20.215Z,17.97
2018-12-25T16:58:46.481Z,15.40
2018-12-25T17:01:12.774Z,14.83
2018-12-25T17:03:39.238Z,15.90
2018-12-25T17:06:05.512Z,21.60
2018-12-25T17:08:31.899Z,15.67
2018-12-25T17:10:58.281Z,19.53
2018-12-25T17:13:24.797Z,16.50
2018-12-25T17:15:51.066Z,14.77
2018-12-25T17:18:17.353Z,15.10
2018-12-25T17:20:43.636Z,13.10
2018-12-25T17:23:10.241Z,13.93
2018-12-25T17:25:36.600Z,15.00
2018-12-25T17:28:03.079Z,10.23
2018-12-25T17:30:29.752Z,9.73
2018-12-25T17:32:56.081Z,8.63
2018-12-25T17:35:22.483Z,25.13
2018-12-25T17:37:48.893Z,20.90
2018-12-25T17:40:15.163Z,23.10
2018-12-25T17:42:41.485Z,14.17
2018-12-25T17:45:07.854Z,13.87
2018-12-25T17:47:34.087Z,17.47
2018-12-25T17:50:00.600Z,17.43
2018-12-25T17:52:26.954Z,20.33
2018-12-25T17:54:53.362Z,18.80
2018-12-25T17:57:19.936Z,19.43
2018-12-25T17:59:46.274Z,18.90
2018-12-25T18:02:12.561Z,20.00
2018-12-25T18:04:38.835Z,13.63
2018-12-25T18:07:05.130Z,13.40
2018-12-25T18:09:31.501Z,15.77
2018-12-25T18:11:57.782Z,14.63
2018-12-25T18:14:24.170Z,13.40
2018-12-25T18:16:50.530Z,14.47
2018-12-25T18:19:16.895Z,17.70
2018-12-25T18:21:43.209Z,15.17
2018-12-25T18:24:09.773Z,14.60
2018-12-25T18:26:36.246Z,15.03
2018-12-25T18:29:02.639Z,16.93
2018-12-25T18:31:29.002Z,20.93
2018-12-25T18:33:55.304Z,18.20
2018-12-25T18:36:21.699Z,16.77
2018-12-25T18:38:47.964Z,17.30
2018-12-25T18:41:14.203Z,13.50
2018-12-25T18:43:40.551Z,14.93
2018-12-25T18:46:06.810Z,19.67
2018-12-25T18:48:33.080Z,18.87
2018-12-25T18:50:59.731Z,20.67
2018-12-25T18:53:28.186Z,18.57
2018-12-25T18:55:54.204Z,15.97
2018-12-25T18:58:20.446Z,21.90
2018-12-25T19:00:46.723Z,15.27
2018-12-25T19:03:13.034Z,14.03
2018-12-25T19:05:39.620Z,17.93
2018-12-25T19:08:06.003Z,20.97
2018-12-25T19:10:32.564Z,17.63
2018-12-25T19:12:58.940Z,20.50
2018-12-25T19:15:25.311Z,20.73
2018-12-25T19:17:52.267Z,14.93
2018-12-25T19:20:18.648Z,17.10
2018-12-25T19:22:44.918Z,21.40
2018-12-25T19:25:11.370Z,19.50
2018-12-25T19:27:37.727Z,20.60
2018-12-25T19:30:07.784Z,15.10
2018-12-25T19:32:34.075Z,12.33
2018-12-25T19:35:00.464Z,19.77
2018-12-25T19:37:26.946Z,18.93
2018-12-25T19:39:53.430Z,18.87
2018-12-25T19:42:22.230Z,21.07
2018-12-25T19:44:48.728Z,19.83
2018-12-25T19:47:15.239Z,15.83
2018-12-25T19:49:41.704Z,16.97
2018-12-25T19:52:08.207Z,13.83
2018-12-25T19:54:34.558Z,17.13
2018-12-25T19:57:01.057Z,17.07
2018-12-25T19:59:27.460Z,15.37
2018-12-25T20:01:53.820Z,28.90
2018-12-25T20:04:26.952Z,24.87
2018-12-25T20:06:57.005Z,21.50
2018-12-25T20:09:30.219Z,23.20
2018-12-25T20:12:09.446Z,19.73
2018-12-25T20:14:54.704Z,22.47
2018-12-25T20:17:27.538Z,24.90
2018-12-25T20:20:12.513Z,19.20
2018-12-25T20:22:57.650Z,21.77
2018-12-25T20:25:39.852Z,21.83
2018-12-25T20:28:18.957Z,19.10
2018-12-25T20:31:03.659Z,18.57
2018-12-25T20:33:39.490Z,19.00
2018-12-25T20:36:46.112Z,20.10
2018-12-25T20:39:19.158Z,20.70
2018-12-25T20:41:49.254Z,20.53
2018-12-25T20:44:34.674Z,23.17
2018-12-25T20:47:37.061Z,25.40
2018-12-25T20:50:12.823Z,20.53
2018-12-25T20:52:48.902Z,22.07
2018-12-25T20:55:52.919Z,20.77
2018-12-25T20:58:44.558Z,22.17
2018-12-25T21:01:40.710Z,22.43
2018-12-25T21:04:20.148Z,19.37
2018-12-25T21:07:02.158Z,20.63
2018-12-25T21:09:58.010Z,18.20
2018-12-25T21:12:34.099Z,19.33
2018-12-25T21:15:19.416Z,21.13
2018-12-25T21:18:18.117Z,20.80
2018-12-25T21:21:20.542Z,22.37
2018-12-25T21:24:25.994Z,24.00
2018-12-25T21:27:30.050Z,22.87
2018-12-25T21:29:58.040Z,23.03
2018-12-25T21:32:25.051Z,20.60
2018-12-25T21:34:57.858Z,19.00
2018-12-25T21:37:24.662Z,19.03
2018-12-25T21:39:51.634Z,19.87
2018-12-25T21:42:19.123Z,25.70
2018-12-25T21:44:45.990Z,22.80
2018-12-25T21:47:12.474Z,21.60
2018-12-25T21:49:42.208Z,20.57
2018-12-25T21:52:08.694Z,18.20
2018-12-25T21:54:35.302Z,17.97
2018-12-25T21:57:01.749Z,18.77
2018-12-25T21:59:28.338Z,17.53
2018-12-25T22:01:54.799Z,15.33
2018-12-25T22:04:21.456Z,18.70
2018-12-25T22:06:47.765Z,18.63
2018-12-25T22:09:14.241Z,16.90
2018-12-25T22:11:42.438Z,16.83
2018-12-25T22:14:08.741Z,18.57
2018-12-25T22:16:35.129Z,14.83
2018-12-25T22:19:01.494Z,16.17
2018-12-25T22:21:27.920Z,16.80
2018-12-25T22:23:54.182Z,17.67
2018-12-25T22:26:20.899Z,18.07
2018-12-25T22:28:47.290Z,16.53
2018-12-25T22:31:13.534Z,16.00
2018-12-25T22:33:39.926Z,14.93
2018-12-25T22:36:06.505Z,20.27
2018-12-25T22:38:32.789Z,20.03
2018-12-25T22:40:59.089Z,18.70
2018-12-25T22:43:25.660Z,24.87
2018-12-25T22:45:51.999Z,20.13
2018-12-25T22:48:18.372Z,22.20
2018-12-25T22:50:44.777Z,21.13
2018-12-25T22:53:11.225Z,22.00
2018-12-25T22:55:37.493Z,23.83
2018-12-25T22:58:03.777Z,23.30
2018-12-25T23:00:30.495Z,22.10
2018-12-25T23:02:56.872Z,22.80
2018-12-25T23:05:23.183Z,19.57
2018-12-25T23:07:49.632Z,21.37
2018-12-25T23:10:15.986Z,20.53
2018-12-25T23:12:42.274Z,18.13
2018-12-25T23:15:08.816Z,14.33
2018-12-25T23:17:35.205Z,15.80
2018-12-25T23:20:03.454Z,22.83
2018-12-25T23:22:29.847Z,19.90
2018-12-25T23:24:56.252Z,22.30
2018-12-25T23:27:22.529Z,24.67
2018-12-25T23:29:48.826Z,22.07
2018-12-25T23:32:15.209Z,23.03
2018-12-25T23:34:41.487Z,25.80
2018-12-25T23:37:07.831Z,23.00
2018-12-25T23:39:34.240Z,24.37
2018-12-25T23:42:00.925Z,21.93
2018-12-25T23:44:27.321Z,21.90
2018-12-25T23:46:53.626Z,22.23
2018-12-25T23:49:20.092Z,24.57
2018-12-25T23:51:46.491Z,23.27
2018-12-25T23:54:13.007Z,20.37
2018-12-25T23:56:39.373Z,21.43
2018-12-25T23:59:05.779Z,23.57
